createdAt,value
2023-10-06T00:00:20.920Z,3.78
2023-10-06T00:03:12.515Z,3.90
2023-10-06T00:05:59.251Z,3.72
2023-10-06T00:08:52.930Z,3.33
2023-10-06T00:11:44.130Z,3.60
2023-10-06T00:14:56.730Z,3.63
2023-10-06T00:17:50.353Z,3.45
2023-10-06T00:20:51.777Z,3.70
2023-10-06T00:23:41.611Z,3.10
2023-10-06T00:26:34.201Z,3.40
2023-10-06T00:29:24.713Z,3.58
2023-10-06T00:32:23.538Z,3.33
2023-10-06T00:35:16.345Z,3.35
2023-10-06T00:38:22.418Z,3.42
2023-10-06T00:41:08.953Z,3.58
2023-10-06T00:44:05.190Z,3.13
2023-10-06T00:46:53.900Z,3.40
2023-10-06T00:49:47.248Z,3.22
2023-10-06T00:52:35.322Z,3.63
2023-10-06T00:55:21.778Z,3.70
2023-10-06T00:58:17.711Z,3.22
2023-10-06T01:01:07.075Z,3.33
2023-10-06T01:04:13.876Z,3.42
2023-10-06T01:07:01.368Z,3.08
2023-10-06T01:10:09.884Z,3.72
2023-10-06T01:12:58.798Z,3.80
2023-10-06T01:15:51.177Z,3.88
2023-10-06T01:18:42.772Z,4.75
2023-10-06T01:21:31.977Z,4.35
2023-10-06T01:24:32.695Z,5.03
2023-10-06T01:27:22.515Z,4.22
2023-10-06T01:30:38.915Z,4.68
2023-10-06T01:33:25.039Z,4.63
2023-10-06T01:36:15.193Z,4.22
2023-10-06T01:39:05.967Z,3.70
2023-10-06T01:41:54.853Z,3.50
2023-10-06T01:44:40.959Z,3.60
2023-10-06T01:47:30.962Z,4.45
2023-10-06T01:50:22.692Z,3.50
2023-10-06T01:53:19.912Z,3.80
2023-10-06T01:56:09.740Z,3.28
2023-10-06T01:59:06.489Z,4.07
2023-10-06T02:01:52.828Z,4.05
2023-10-06T02:04:46.716Z,4.15
2023-10-06T02:07:37.047Z,3.78
2023-10-06T02:10:25.759Z,4.32
2023-10-06T02:13:12.534Z,3.08
2023-10-06T02:16:02.727Z,3.72
2023-10-06T02:18:48.645Z,4.30
2023-10-06T02:21:36.986Z,4.43
2023-10-06T02:24:28.022Z,3.95
2023-10-06T02:27:17.185Z,4.22
2023-10-06T02:30:12.255Z,3.67
2023-10-06T02:32:58.847Z,4.00
2023-10-06T02:35:48.108Z,3.60
2023-10-06T02:38:42.640Z,4.57
2023-10-06T02:41:33.902Z,4.20
2023-10-06T02:44:24.299Z,4.40
2023-10-06T02:47:13.390Z,4.78
2023-10-06T02:50:08.320Z,4.10
2023-10-06T02:52:57.123Z,4.40
2023-10-06T02:55:47.449Z,4.35
2023-10-06T02:58:34.720Z,4.50
2023-10-06T03:01:23.395Z,4.38
2023-10-06T03:04:13.205Z,4.18
2023-10-06T03:09:52.621Z,3.50
2023-10-06T03:12:41.083Z,4.40
2023-10-06T03:15:47.456Z,3.92
2023-10-06T03:18:36.331Z,4.18
2023-10-06T03:21:23.920Z,4.20
2023-10-06T03:24:19.147Z,4.05
2023-10-06T03:27:13.722Z,3.92
2023-10-06T03:30:12.377Z,4.22
2023-10-06T03:33:00.118Z,3.70
2023-10-06T03:35:48.430Z,4.30
2023-10-06T03:38:38.027Z,4.35
2023-10-06T03:41:34.056Z,4.53
2023-10-06T03:44:32.088Z,4.68
2023-10-06T03:47:26.200Z,4.75
2023-10-06T03:50:12.374Z,3.75
2023-10-06T03:53:02.567Z,4.43
2023-10-06T03:55:51.450Z,4.10
2023-10-06T03:58:37.692Z,4.20
2023-10-06T04:01:32.792Z,4.55
2023-10-06T04:04:24.543Z,3.88
2023-10-06T04:07:10.812Z,3.90
2023-10-06T04:09:56.934Z,4.30
2023-10-06T04:12:44.798Z,4.13
2023-10-06T04:15:33.522Z,3.88
2023-10-06T04:18:25.278Z,4.75
2023-10-06T04:21:13.583Z,4.40
2023-10-06T04:24:02.035Z,3.60
2023-10-06T04:26:53.533Z,4.20
2023-10-06T04:29:41.155Z,4.18
2023-10-06T04:32:27.421Z,3.83
2023-10-06T04:35:20.939Z,4.55
2023-10-06T04:38:11.527Z,4.50
2023-10-06T04:40:58.184Z,4.50
2023-10-06T04:43:46.331Z,4.32
2023-10-06T04:46:32.515Z,4.57
2023-10-06T04:49:18.787Z,4.25
2023-10-06T04:52:05.496Z,4.45
2023-10-06T04:54:51.341Z,4.28
2023-10-06T04:57:37.455Z,4.65
2023-10-06T05:00:28.571Z,4.93
2023-10-06T05:03:15.246Z,5.20
2023-10-06T05:06:01.470Z,4.30
2023-10-06T05:08:48.768Z,4.00
2023-10-06T05:11:35.307Z,5.15
2023-10-06T05:14:21.075Z,4.15
2023-10-06T05:17:07.570Z,4.65
2023-10-06T05:19:56.552Z,4.75
2023-10-06T05:22:42.849Z,4.60
2023-10-06T05:25:30.769Z,4.90
2023-10-06T05:28:22.037Z,4.88
2023-10-06T05:31:08.898Z,4.85
2023-10-06T05:33:58.306Z,5.75
2023-10-06T05:36:44.861Z,5.10
2023-10-06T05:39:35.476Z,4.78
2023-10-06T05:42:21.981Z,4.28
2023-10-06T05:45:16.853Z,4.78
2023-10-06T05:48:08.441Z,5.10
2023-10-06T05:50:57.949Z,4.70
2023-10-06T05:53:46.865Z,5.22
2023-10-06T05:56:34.348Z,4.40
2023-10-06T05:59:24.146Z,4.63
2023-10-06T06:02:10.943Z,4.50
2023-10-06T06:05:00.582Z,4.20
2023-10-06T06:07:46.826Z,4.70
2023-10-06T06:10:34.678Z,4.65
2023-10-06T06:13:23.894Z,5.55
2023-10-06T06:16:16.329Z,5.00
2023-10-06T06:19:02.788Z,5.05
2023-10-06T06:21:50.281Z,5.05
2023-10-06T06:24:39.837Z,5.25
2023-10-06T06:27:26.146Z,4.82
2023-10-06T06:30:20.028Z,5.32
2023-10-06T06:33:10.079Z,5.25
2023-10-06T06:35:57.452Z,5.68
2023-10-06T06:38:46.992Z,5.55
2023-10-06T06:41:34.515Z,5.45
2023-10-06T06:44:23.313Z,4.90
2023-10-06T06:47:09.383Z,5.50
2023-10-06T06:50:00.666Z,5.55
2023-10-06T06:52:57.124Z,5.18
2023-10-06T06:55:44.459Z,5.47
2023-10-06T06:58:33.729Z,4.40
2023-10-06T07:01:20.139Z,3.95
2023-10-06T07:04:09.201Z,4.90
2023-10-06T07:06:57.694Z,5.22
2023-10-06T07:09:43.734Z,4.72
2023-10-06T07:12:29.963Z,5.50
2023-10-06T07:15:17.568Z,5.18
2023-10-06T07:18:05.301Z,5.18
2023-10-06T07:20:56.070Z,6.13
2023-10-06T07:23:46.073Z,7.25
2023-10-06T07:26:37.060Z,5.93
2023-10-06T07:29:23.850Z,5.65
2023-10-06T07:32:15.843Z,6.25
2023-10-06T07:35:08.259Z,6.88
2023-10-06T07:37:59.831Z,6.80
2023-10-06T07:40:56.002Z,6.30
2023-10-06T07:43:42.327Z,6.35
2023-10-06T07:46:31.084Z,6.43
2023-10-06T07:49:19.583Z,6.57
2023-10-06T07:52:12.113Z,6.47
2023-10-06T07:55:07.800Z,6.45
2023-10-06T07:57:57.309Z,6.60
2023-10-06T08:00:43.536Z,6.88
2023-10-06T08:03:33.971Z,8.07
2023-10-06T08:06:19.994Z,7.75
2023-10-06T08:09:12.278Z,8.50
2023-10-06T08:12:05.560Z,9.50
2023-10-06T08:14:56.559Z,8.07
2023-10-06T08:17:46.998Z,8.02
2023-10-06T08:20:34.048Z,8.80
2023-10-06T08:23:22.514Z,8.68
2023-10-06T08:26:45.492Z,7.85
2023-10-06T08:29:24.572Z,7.63
2023-10-06T08:34:59.129Z,6.75
2023-10-06T08:37:47.452Z,7.35
2023-10-06T08:40:35.412Z,7.10
2023-10-06T08:43:27.860Z,7.53
2023-10-06T08:46:16.372Z,7.85
2023-10-06T08:49:07.269Z,7.78
2023-10-06T08:51:58.113Z,7.22
2023-10-06T08:54:46.460Z,8.45
2023-10-06T08:57:33.336Z,10.07
2023-10-06T09:00:25.648Z,10.77
2023-10-06T09:03:18.306Z,10.85
2023-10-06T09:06:06.681Z,12.38
2023-10-06T09:08:53.505Z,11.43
2023-10-06T09:11:42.127Z,12.43
2023-10-06T09:14:32.814Z,11.23
2023-10-06T09:17:35.252Z,11.55
2023-10-06T09:20:39.693Z,13.20
2023-10-06T09:23:38.499Z,14.55
2023-10-06T09:26:35.312Z,16.07
2023-10-06T09:29:36.008Z,15.65
2023-10-06T09:32:27.389Z,14.35
2023-10-06T09:35:29.715Z,13.15
2023-10-06T09:38:23.017Z,13.93
2023-10-06T09:41:11.103Z,14.77
2023-10-06T09:44:05.301Z,13.82
2023-10-06T09:46:54.984Z,12.40
2023-10-06T09:49:42.270Z,13.73
2023-10-06T09:52:30.237Z,13.23
2023-10-06T09:55:22.874Z,12.30
2023-10-06T09:58:10.962Z,11.52
2023-10-06T10:00:58.210Z,12.13
2023-10-06T10:03:49.207Z,11.35
2023-10-06T10:06:41.048Z,10.02
2023-10-06T10:09:35.631Z,9.93
2023-10-06T10:12:51.772Z,11.13
2023-10-06T10:16:39.396Z,9.73
2023-10-06T10:19:28.739Z,9.15
2023-10-06T10:22:22.718Z,9.80
2023-10-06T10:28:22.741Z,9.40
2023-10-06T10:31:15.345Z,8.98
2023-10-06T10:34:22.837Z,7.78
2023-10-06T10:37:28.359Z,7.63
2023-10-06T10:40:30.190Z,6.90
2023-10-06T10:46:42.683Z,7.55
2023-10-06T10:49:48.857Z,9.30
2023-10-06T10:55:51.974Z,7.78
2023-10-06T10:58:46.060Z,7.38
2023-10-06T11:01:39.969Z,7.93
2023-10-06T11:04:55.116Z,8.20
2023-10-06T11:08:12.950Z,7.07
2023-10-06T11:11:19.398Z,7.40
2023-10-06T11:14:24.688Z,7.85
2023-10-06T11:17:19.088Z,6.80
2023-10-06T11:20:42.604Z,7.32
2023-10-06T11:23:49.870Z,6.07
2023-10-06T11:26:47.811Z,5.60
2023-10-06T11:29:49.441Z,6.47
2023-10-06T11:32:43.283Z,5.68
2023-10-06T11:35:32.030Z,6.45
2023-10-06T11:38:20.048Z,5.47
2023-10-06T11:41:15.307Z,5.75
2023-10-06T11:44:06.154Z,5.45
2023-10-06T11:47:06.282Z,5.70
2023-10-06T11:50:01.867Z,5.07
2023-10-06T11:52:54.492Z,6.07
2023-10-06T11:55:43.180Z,6.20
2023-10-06T11:58:40.936Z,6.00
2023-10-06T12:01:37.991Z,6.00
2023-10-06T12:04:33.011Z,5.68
2023-10-06T12:07:28.262Z,5.63
2023-10-06T12:10:23.517Z,5.68
2023-10-06T12:13:16.012Z,5.70
2023-10-06T12:16:16.332Z,5.18
2023-10-06T12:19:09.830Z,4.55
2023-10-06T12:22:00.989Z,5.65
2023-10-06T12:27:40.400Z,5.20
2023-10-06T12:30:39.728Z,4.35
2023-10-06T12:33:29.194Z,4.43
2023-10-06T12:36:21.126Z,4.82
2023-10-06T12:39:43.692Z,4.82
2023-10-06T12:42:33.251Z,4.72
2023-10-06T12:45:35.591Z,3.92
2023-10-06T12:48:27.473Z,4.07
2023-10-06T12:51:21.944Z,4.30
2023-10-06T12:57:00.763Z,4.25
2023-10-06T12:59:51.221Z,4.38
2023-10-06T13:02:50.200Z,3.60
2023-10-06T13:05:41.297Z,3.72
2023-10-06T13:08:38.460Z,3.85
2023-10-06T13:11:25.402Z,4.03
2023-10-06T13:14:16.796Z,4.25
2023-10-06T13:17:09.704Z,4.38
2023-10-06T13:19:59.488Z,4.15
2023-10-06T13:22:57.133Z,3.97
2023-10-06T13:25:49.798Z,3.90
2023-10-06T13:28:41.321Z,4.10
2023-10-06T13:31:35.887Z,4.28
2023-10-06T13:34:24.440Z,4.70
2023-10-06T13:37:16.451Z,3.83
2023-10-06T13:40:06.451Z,4.15
2023-10-06T13:42:55.526Z,4.15
2023-10-06T13:45:50.692Z,3.35
2023-10-06T13:48:37.125Z,3.45
2023-10-06T13:51:24.936Z,3.55
2023-10-06T13:54:11.425Z,3.70
2023-10-06T13:57:00.531Z,3.50
2023-10-06T13:59:56.592Z,3.20
2023-10-06T14:02:43.283Z,4.70
2023-10-06T14:05:58.386Z,4.22
2023-10-06T14:08:46.418Z,4.55
2023-10-06T14:11:36.032Z,4.68
2023-10-06T14:15:02.154Z,4.85
2023-10-06T14:17:48.697Z,3.78
2023-10-06T14:20:35.204Z,4.53
2023-10-06T14:23:32.536Z,4.03
2023-10-06T14:26:21.217Z,4.60
2023-10-06T14:29:08.343Z,4.93
2023-10-06T14:32:14.224Z,3.95
2023-10-06T14:35:00.458Z,4.07
2023-10-06T14:38:14.681Z,4.07
2023-10-06T14:41:38.245Z,4.07
2023-10-06T14:44:46.185Z,4.28
2023-10-06T14:47:35.675Z,4.95
2023-10-06T14:50:37.380Z,3.80
2023-10-06T14:53:36.233Z,4.45
2023-10-06T14:57:14.460Z,4.30
2023-10-06T15:00:16.296Z,3.97
2023-10-06T15:03:03.677Z,3.63
2023-10-06T15:06:04.462Z,4.10
2023-10-06T15:09:26.292Z,4.00
2023-10-06T15:26:11.703Z,3.15
2023-10-06T15:29:00.425Z,3.55
2023-10-06T15:31:54.239Z,3.03
2023-10-06T15:34:40.820Z,4.35
2023-10-06T15:37:26.757Z,3.85
2023-10-06T15:40:12.433Z,5.28
2023-10-06T15:43:13.199Z,5.13
2023-10-06T15:46:10.130Z,4.30
2023-10-06T15:49:02.687Z,4.65
2023-10-06T15:51:48.931Z,4.47
2023-10-06T15:54:35.033Z,4.70
2023-10-06T15:57:21.702Z,3.95
2023-10-06T16:00:11.862Z,3.92
2023-10-06T16:02:58.445Z,3.10
2023-10-06T16:05:44.527Z,3.08
2023-10-06T16:08:30.512Z,4.10
2023-10-06T16:11:17.350Z,4.47
2023-10-06T16:14:06.557Z,3.95
2023-10-06T16:19:40.601Z,3.20
2023-10-06T16:22:26.768Z,3.30
2023-10-06T16:25:13.765Z,3.38
2023-10-06T16:27:59.525Z,3.72
2023-10-06T16:30:49.140Z,3.30
2023-10-06T16:33:39.350Z,3.20
2023-10-06T16:36:25.551Z,3.13
2023-10-06T16:39:18.625Z,3.08
2023-10-06T16:42:07.061Z,4.55
2023-10-06T16:44:53.304Z,4.05
2023-10-06T16:47:39.281Z,3.75
2023-10-06T16:50:26.391Z,3.00
2023-10-06T16:53:14.977Z,3.08
2023-10-06T16:56:01.511Z,3.30
2023-10-06T16:58:50.199Z,3.35
2023-10-06T17:01:36.575Z,3.17
2023-10-06T17:04:22.449Z,3.03
2023-10-06T17:07:08.369Z,3.10
2023-10-06T17:09:54.093Z,2.95
2023-10-06T17:12:40.729Z,3.35
2023-10-06T17:15:26.516Z,3.90
2023-10-06T17:18:12.830Z,4.82
2023-10-06T17:21:01.528Z,4.07
2023-10-06T17:23:48.023Z,5.10
2023-10-06T17:26:34.299Z,4.70
2023-10-06T17:29:20.107Z,4.88
2023-10-06T17:32:06.107Z,5.30
2023-10-06T17:34:52.833Z,3.10
2023-10-06T17:37:39.088Z,3.63
2023-10-06T17:40:25.122Z,3.80
2023-10-06T17:43:13.231Z,3.70
2023-10-06T17:45:59.726Z,3.80
2023-10-06T17:48:49.009Z,3.67
2023-10-06T17:51:37.612Z,4.20
2023-10-06T17:54:30.084Z,4.17
2023-10-06T17:57:16.610Z,4.30
2023-10-06T18:00:03.031Z,5.00
2023-10-06T18:02:58.830Z,4.25
2023-10-06T18:05:46.339Z,3.85
2023-10-06T18:08:33.015Z,3.78
2023-10-06T18:11:19.060Z,3.78
2023-10-06T18:14:05.140Z,3.60
2023-10-06T18:16:52.062Z,3.55
2023-10-06T18:19:37.893Z,2.80
2023-10-06T18:22:24.457Z,3.30
2023-10-06T18:25:13.206Z,3.28
2023-10-06T18:27:59.334Z,3.22
2023-10-06T18:30:49.779Z,3.35
2023-10-06T18:33:37.163Z,3.40
2023-10-06T18:36:22.870Z,3.65
2023-10-06T18:39:08.950Z,3.20
2023-10-06T18:41:54.932Z,3.72
2023-10-06T18:44:41.060Z,3.60
2023-10-06T18:47:26.941Z,3.58
2023-10-06T18:50:22.675Z,4.22
2023-10-06T18:53:08.829Z,3.50
2023-10-06T18:55:54.579Z,4.03
2023-10-06T18:58:40.441Z,3.78
2023-10-06T19:01:27.203Z,5.20
2023-10-06T19:04:13.945Z,5.13
2023-10-06T19:06:59.698Z,5.32
2023-10-06T19:09:45.239Z,4.97
2023-10-06T19:12:33.918Z,4.53
2023-10-06T19:15:19.356Z,4.28
2023-10-06T19:18:05.239Z,3.92
2023-10-06T19:21:01.132Z,4.03
2023-10-06T19:23:47.350Z,4.40
2023-10-06T19:26:36.436Z,5.22
2023-10-06T19:29:23.233Z,3.70
2023-10-06T19:32:09.356Z,3.97
2023-10-06T19:34:56.471Z,4.28
2023-10-06T19:37:42.785Z,3.63
2023-10-06T19:40:30.196Z,3.95
2023-10-06T19:43:16.122Z,6.65
2023-10-06T19:46:06.037Z,5.50
2023-10-06T19:48:55.416Z,4.63
2023-10-06T19:51:43.130Z,4.55
2023-10-06T19:54:29.233Z,4.63
2023-10-06T19:57:16.861Z,3.70
2023-10-06T20:00:12.404Z,4.68
2023-10-06T20:02:58.205Z,4.18
2023-10-06T20:05:44.994Z,4.13
2023-10-06T20:08:31.869Z,4.03
2023-10-06T20:11:20.596Z,5.10
2023-10-06T20:14:08.552Z,4.25
2023-10-06T20:16:54.923Z,4.03
2023-10-06T20:19:41.136Z,10.55
2023-10-06T20:22:27.432Z,13.10
2023-10-06T20:25:15.790Z,16.65
2023-10-06T20:28:04.665Z,18.00
2023-10-06T20:30:50.772Z,13.88
2023-10-06T20:33:36.863Z,9.90
2023-10-06T20:36:22.819Z,8.43
2023-10-06T20:39:12.084Z,6.65
2023-10-06T20:41:58.176Z,7.88
2023-10-06T20:44:44.366Z,6.22
2023-10-06T20:47:33.213Z,7.15
2023-10-06T20:50:19.228Z,5.70
2023-10-06T20:53:04.952Z,5.30
2023-10-06T20:55:50.574Z,5.07
2023-10-06T20:58:36.631Z,4.75
2023-10-06T21:01:22.719Z,4.97
2023-10-06T21:04:10.030Z,4.15
2023-10-06T21:06:57.264Z,4.07
2023-10-06T21:09:44.945Z,5.25
2023-10-06T21:12:30.646Z,4.22
2023-10-06T21:15:17.664Z,4.82
2023-10-06T21:18:03.540Z,4.57
2023-10-06T21:20:50.238Z,4.57
2023-10-06T21:23:36.358Z,3.72
2023-10-06T21:26:25.433Z,4.00
2023-10-06T21:29:12.370Z,3.88
2023-10-06T21:31:58.440Z,3.88
2023-10-06T21:34:44.796Z,3.90
2023-10-06T21:37:31.044Z,4.10
2023-10-06T21:40:17.618Z,5.10
2023-10-06T21:43:03.926Z,4.85
2023-10-06T21:45:50.414Z,4.40
2023-10-06T21:48:36.309Z,4.43
2023-10-06T21:51:22.305Z,7.00
2023-10-06T21:54:09.102Z,5.20
2023-10-06T21:56:55.099Z,4.63
2023-10-06T21:59:44.689Z,8.30
2023-10-06T22:02:31.050Z,6.63
2023-10-06T22:05:17.766Z,6.35
2023-10-06T22:08:04.012Z,5.68
2023-10-06T22:10:50.123Z,4.60
2023-10-06T22:13:36.317Z,5.03
2023-10-06T22:16:22.095Z,6.05
2023-10-06T22:19:11.673Z,5.55
2023-10-06T22:22:01.663Z,4.82
2023-10-06T22:24:47.637Z,4.53
2023-10-06T22:27:33.948Z,4.47
2023-10-06T22:30:20.053Z,4.72
2023-10-06T22:33:08.168Z,4.25
2023-10-06T22:35:53.657Z,5.38
2023-10-06T22:38:40.084Z,5.90
2023-10-06T22:41:25.706Z,6.55
2023-10-06T22:44:11.490Z,5.25
2023-10-06T22:46:59.625Z,5.65
2023-10-06T22:49:46.996Z,5.95
2023-10-06T22:52:32.904Z,5.82
2023-10-06T22:55:24.564Z,5.28
2023-10-06T22:58:11.920Z,5.03
2023-10-06T23:00:59.587Z,5.60
2023-10-06T23:03:45.511Z,6.30
2023-10-06T23:06:31.798Z,5.28
2023-10-06T23:09:18.581Z,5.15
2023-10-06T23:12:06.239Z,5.25
2023-10-06T23:14:52.248Z,5.63
2023-10-06T23:17:42.148Z,5.82
2023-10-06T23:20:29.270Z,5.05
2023-10-06T23:23:20.696Z,3.58
2023-10-06T23:26:11.577Z,3.95
2023-10-06T23:28:57.722Z,4.68
2023-10-06T23:31:44.874Z,4.28
2023-10-06T23:34:31.687Z,5.15
2023-10-06T23:37:17.946Z,6.07
2023-10-06T23:40:07.068Z,6.05
2023-10-06T23:42:56.311Z,7.20
2023-10-06T23:45:47.214Z,6.28
2023-10-06T23:48:33.655Z,5.50
2023-10-06T23:51:20.211Z,5.72
2023-10-06T23:54:10.385Z,5.63
2023-10-06T23:56:58.662Z,4.38
2023-10-06T23:59:49.423Z,4.45
